Terminal Aerodrome Forecast
Issued by NWS

Home | Current Version | Previous Version | Text Only | Print | Product List | Glossary On
Versions: 1 2 3 4 5 6 7 8 9 10 11 12 13 14 15 16 17 18 19 20 21
000
FTUS41 KCAR 201734
TAFBHB
TAF
KBHB 201734Z 2018/2118 20006KT P6SM SCT060
     FM202000 23005KT P6SM VCTS BKN050CB
     FM210100 24005KT P6SM BKN110
     FM210700 VRB03KT P6SM BCFG SKC
     FM211100 25005KT P6SM SCT070=

USA.gov is the U.S. government's official web portal to all federal, state and local government web resources and services.